sensor_id;sensor_type;location;lat;lon;timestamp;temperature;humidity
27779;DHT22;30234;48.090;11.464;2022-07-23T00:00:57;23.00;99.90
27779;DHT22;30234;48.090;11.464;2022-07-23T00:04:58;22.90;99.90
27779;DHT22;30234;48.090;11.464;2022-07-23T00:08:58;22.80;99.90
27779;DHT22;30234;48.090;11.464;2022-07-23T00:12:59;22.70;99.90
27779;DHT22;30234;48.090;11.464;2022-07-23T00:17:00;22.60;99.90
27779;DHT22;30234;48.090;11.464;2022-07-23T00:21:01;22.50;99.90
27779;DHT22;30234;48.090;11.464;2022-07-23T00:25:03;22.40;99.90
27779;DHT22;30234;48.090;11.464;2022-07-23T00:29:04;22.30;99.90
27779;DHT22;30234;48.090;11.464;2022-07-23T00:33:07;22.40;99.90
27779;DHT22;30234;48.090;11.464;2022-07-23T00:37:08;22.40;99.90
27779;DHT22;30234;48.090;11.464;2022-07-23T00:41:09;22.40;99.90
27779;DHT22;30234;48.090;11.464;2022-07-23T00:45:10;22.50;99.90
27779;DHT22;30234;48.090;11.464;2022-07-23T00:49:10;22.60;99.90
27779;DHT22;30234;48.090;11.464;2022-07-23T00:53:12;22.70;99.90
27779;DHT22;30234;48.090;11.464;2022-07-23T00:57:13;22.70;99.90
27779;DHT22;30234;48.090;11.464;2022-07-23T01:01:14;22.70;99.90
27779;DHT22;30234;48.090;11.464;2022-07-23T01:05:16;22.80;99.90
27779;DHT22;30234;48.090;11.464;2022-07-23T01:09:18;22.80;99.90
27779;DHT22;30234;48.090;11.464;2022-07-23T01:13:19;22.90;99.90
27779;DHT22;30234;48.090;11.464;2022-07-23T01:17:20;22.90;99.90
27779;DHT22;30234;48.090;11.464;2022-07-23T01:21:21;23.00;99.90
27779;DHT22;30234;48.090;11.464;2022-07-23T01:25:22;22.70;99.90
27779;DHT22;30234;48.090;11.464;2022-07-23T01:29:23;22.20;99.90
27779;DHT22;30234;48.090;11.464;2022-07-23T01:33:24;21.80;99.90
27779;DHT22;30234;48.090;11.464;2022-07-23T01:37:25;21.30;99.90
27779;DHT22;30234;48.090;11.464;2022-07-23T01:41:25;20.30;99.90
27779;DHT22;30234;48.090;11.464;2022-07-23T01:45:26;19.60;99.90
27779;DHT22;30234;48.090;11.464;2022-07-23T01:49:27;19.00;99.90
27779;DHT22;30234;48.090;11.464;2022-07-23T01:53:28;18.70;99.90
27779;DHT22;30234;48.090;11.464;2022-07-23T01:57:31;18.50;99.90
27779;DHT22;30234;48.090;11.464;2022-07-23T02:01:32;18.50;99.90
27779;DHT22;30234;48.090;11.464;2022-07-23T02:05:33;18.30;99.90
27779;DHT22;30234;48.090;11.464;2022-07-23T02:09:34;17.90;99.90
27779;DHT22;30234;48.090;11.464;2022-07-23T02:13:35;17.80;99.90
27779;DHT22;30234;48.090;11.464;2022-07-23T02:17:36;17.60;99.90
27779;DHT22;30234;48.090;11.464;2022-07-23T02:21:37;17.60;99.90
27779;DHT22;30234;48.090;11.464;2022-07-23T02:25:38;17.50;99.90
27779;DHT22;30234;48.090;11.464;2022-07-23T02:29:39;17.50;99.90
27779;DHT22;30234;48.090;11.464;2022-07-23T02:33:40;17.40;99.90
27779;DHT22;30234;48.090;11.464;2022-07-23T02:37:40;17.40;99.90
27779;DHT22;30234;48.090;11.464;2022-07-23T02:41:41;17.40;99.90
27779;DHT22;30234;48.090;11.464;2022-07-23T02:45:42;17.40;99.90
27779;DHT22;30234;48.090;11.464;2022-07-23T02:49:43;17.40;99.90
27779;DHT22;30234;48.090;11.464;2022-07-23T02:53:44;17.50;99.90
27779;DHT22;30234;48.090;11.464;2022-07-23T02:57:44;17.40;99.90
27779;DHT22;30234;48.090;11.464;2022-07-23T03:01:45;17.40;99.90
27779;DHT22;30234;48.090;11.464;2022-07-23T03:05:47;17.30;99.90
27779;DHT22;30234;48.090;11.464;2022-07-23T03:09:48;17.40;99.90
27779;DHT22;30234;48.090;11.464;2022-07-23T03:13:49;17.50;99.90
27779;DHT22;30234;48.090;11.464;2022-07-23T03:17:49;17.50;99.90
27779;DHT22;30234;48.090;11.464;2022-07-23T03:21:50;17.60;99.90
27779;DHT22;30234;48.090;11.464;2022-07-23T03:25:51;17.60;99.90
27779;DHT22;30234;48.090;11.464;2022-07-23T03:29:53;17.60;99.90
27779;DHT22;30234;48.090;11.464;2022-07-23T03:33:54;17.60;99.90
27779;DHT22;30234;48.090;11.464;2022-07-23T03:37:55;17.50;99.90
27779;DHT22;30234;48.090;11.464;2022-07-23T03:41:56;17.40;99.90
27779;DHT22;30234;48.090;11.464;2022-07-23T03:45:57;17.40;99.90
27779;DHT22;30234;48.090;11.464;2022-07-23T03:49:58;17.40;99.90
27779;DHT22;30234;48.090;11.464;2022-07-23T03:53:59;17.40;99.90
27779;DHT22;30234;48.090;11.464;2022-07-23T03:57:59;17.50;99.90
27779;DHT22;30234;48.090;11.464;2022-07-23T04:02:00;17.60;99.90
27779;DHT22;30234;48.090;11.464;2022-07-23T04:06:01;17.60;99.90
27779;DHT22;30234;48.090;11.464;2022-07-23T04:10:02;17.50;99.90
27779;DHT22;30234;48.090;11.464;2022-07-23T04:14:03;17.60;99.90
27779;DHT22;30234;48.090;11.464;2022-07-23T04:18:04;17.70;99.90
27779;DHT22;30234;48.090;11.464;2022-07-23T04:22:06;17.80;99.90
27779;DHT22;30234;48.090;11.464;2022-07-23T04:26:07;17.80;99.90
27779;DHT22;30234;48.090;11.464;2022-07-23T04:30:08;17.90;99.90
27779;DHT22;30234;48.090;11.464;2022-07-23T04:34:09;18.00;99.90
27779;DHT22;30234;48.090;11.464;2022-07-23T04:38:10;18.20;99.90
27779;DHT22;30234;48.090;11.464;2022-07-23T04:42:11;18.40;99.90
27779;DHT22;30234;48.090;11.464;2022-07-23T04:46:11;18.40;99.90
27779;DHT22;30234;48.090;11.464;2022-07-23T04:50:12;18.30;99.90
27779;DHT22;30234;48.090;11.464;2022-07-23T04:54:13;18.30;99.90
27779;DHT22;30234;48.090;11.464;2022-07-23T04:58:14;18.40;99.90
27779;DHT22;30234;48.090;11.464;2022-07-23T05:02:15;18.60;99.90
27779;DHT22;30234;48.090;11.464;2022-07-23T05:06:16;18.80;99.90
27779;DHT22;30234;48.090;11.464;2022-07-23T05:10:17;18.90;99.90
27779;DHT22;30234;48.090;11.464;2022-07-23T05:14:17;18.90;99.90
27779;DHT22;30234;48.090;11.464;2022-07-23T05:18:18;19.00;99.90
27779;DHT22;30234;48.090;11.464;2022-07-23T05:22:19;19.10;99.90
27779;DHT22;30234;48.090;11.464;2022-07-23T05:26:20;19.10;99.90
27779;DHT22;30234;48.090;11.464;2022-07-23T05:30:21;19.20;99.90
27779;DHT22;30234;48.090;11.464;2022-07-23T05:34:21;19.30;99.90
27779;DHT22;30234;48.090;11.464;2022-07-23T05:38:22;19.40;99.90
27779;DHT22;30234;48.090;11.464;2022-07-23T05:42:23;19.30;99.90
27779;DHT22;30234;48.090;11.464;2022-07-23T05:46:23;19.40;99.90
27779;DHT22;30234;48.090;11.464;2022-07-23T05:50:24;19.60;99.90
27779;DHT22;30234;48.090;11.464;2022-07-23T05:54:25;19.70;99.90
27779;DHT22;30234;48.090;11.464;2022-07-23T05:58:26;19.60;99.90
27779;DHT22;30234;48.090;11.464;2022-07-23T06:02:27;19.50;99.90
27779;DHT22;30234;48.090;11.464;2022-07-23T06:06:28;19.40;99.90
27779;DHT22;30234;48.090;11.464;2022-07-23T06:10:28;18.90;99.90
27779;DHT22;30234;48.090;11.464;2022-07-23T06:14:29;18.60;99.90
27779;DHT22;30234;48.090;11.464;2022-07-23T06:18:30;18.40;99.90
27779;DHT22;30234;48.090;11.464;2022-07-23T06:22:31;18.20;99.90
27779;DHT22;30234;48.090;11.464;2022-07-23T06:26:31;18.30;99.90
27779;DHT22;30234;48.090;11.464;2022-07-23T06:30:32;18.60;99.90
27779;DHT22;30234;48.090;11.464;2022-07-23T06:34:33;18.60;99.90
27779;DHT22;30234;48.090;11.464;2022-07-23T06:38:34;18.80;99.90
27779;DHT22;30234;48.090;11.464;2022-07-23T06:42:35;19.00;99.90
27779;DHT22;30234;48.090;11.464;2022-07-23T06:46:39;19.20;99.90
27779;DHT22;30234;48.090;11.464;2022-07-23T06:50:40;19.50;99.90
27779;DHT22;30234;48.090;11.464;2022-07-23T06:54:41;19.80;99.90
27779;DHT22;30234;48.090;11.464;2022-07-23T06:58:41;20.10;99.90
27779;DHT22;30234;48.090;11.464;2022-07-23T07:02:42;20.40;99.90
27779;DHT22;30234;48.090;11.464;2022-07-23T07:06:43;20.70;99.90
27779;DHT22;30234;48.090;11.464;2022-07-23T07:10:44;20.80;99.90
27779;DHT22;30234;48.090;11.464;2022-07-23T07:14:44;20.90;99.90
27779;DHT22;30234;48.090;11.464;2022-07-23T07:18:45;21.20;99.90
27779;DHT22;30234;48.090;11.464;2022-07-23T07:22:46;21.50;99.90
27779;DHT22;30234;48.090;11.464;2022-07-23T07:26:47;21.80;99.90
27779;DHT22;30234;48.090;11.464;2022-07-23T07:30:48;22.00;99.90
27779;DHT22;30234;48.090;11.464;2022-07-23T07:34:48;22.00;99.90
27779;DHT22;30234;48.090;11.464;2022-07-23T07:38:49;21.80;99.90
27779;DHT22;30234;48.090;11.464;2022-07-23T07:42:51;21.70;99.90
27779;DHT22;30234;48.090;11.464;2022-07-23T07:46:53;21.50;99.90
27779;DHT22;30234;48.090;11.464;2022-07-23T07:50:54;21.40;99.90
27779;DHT22;30234;48.090;11.464;2022-07-23T07:54:55;21.40;99.90
27779;DHT22;30234;48.090;11.464;2022-07-23T07:58:58;21.30;99.90
27779;DHT22;30234;48.090;11.464;2022-07-23T08:03:00;21.40;99.90
27779;DHT22;30234;48.090;11.464;2022-07-23T08:07:01;21.40;99.90
27779;DHT22;30234;48.090;11.464;2022-07-23T08:11:02;21.50;99.90
27779;DHT22;30234;48.090;11.464;2022-07-23T08:15:03;21.70;99.90
27779;DHT22;30234;48.090;11.464;2022-07-23T08:19:04;21.80;99.90
27779;DHT22;30234;48.090;11.464;2022-07-23T08:23:07;22.00;99.90
27779;DHT22;30234;48.090;11.464;2022-07-23T08:27:08;22.40;99.90
27779;DHT22;30234;48.090;11.464;2022-07-23T08:31:09;22.70;99.90
27779;DHT22;30234;48.090;11.464;2022-07-23T08:35:12;23.00;99.90
27779;DHT22;30234;48.090;11.464;2022-07-23T08:39:12;23.50;99.90
27779;DHT22;30234;48.090;11.464;2022-07-23T08:43:17;24.10;99.90
27779;DHT22;30234;48.090;11.464;2022-07-23T08:47:20;24.20;99.90
27779;DHT22;30234;48.090;11.464;2022-07-23T08:51:21;24.20;99.90
27779;DHT22;30234;48.090;11.464;2022-07-23T08:55:26;24.00;99.90
27779;DHT22;30234;48.090;11.464;2022-07-23T08:59:28;23.70;99.90
27779;DHT22;30234;48.090;11.464;2022-07-23T09:03:32;23.70;99.90
27779;DHT22;30234;48.090;11.464;2022-07-23T09:07:34;23.70;99.90
27779;DHT22;30234;48.090;11.464;2022-07-23T09:11:35;23.70;99.90
27779;DHT22;30234;48.090;11.464;2022-07-23T09:15:48;24.10;99.90
27779;DHT22;30234;48.090;11.464;2022-07-23T09:19:50;24.30;99.90
27779;DHT22;30234;48.090;11.464;2022-07-23T09:23:56;24.60;99.90
27779;DHT22;30234;48.090;11.464;2022-07-23T09:28:01;25.20;99.90
27779;DHT22;30234;48.090;11.464;2022-07-23T09:32:03;26.10;99.90
27779;DHT22;30234;48.090;11.464;2022-07-23T09:36:08;27.70;99.90
27779;DHT22;30234;48.090;11.464;2022-07-23T09:40:14;29.30;99.90
27779;DHT22;30234;48.090;11.464;2022-07-23T09:44:19;30.60;99.90
27779;DHT22;30234;48.090;11.464;2022-07-23T09:48:26;31.80;99.20
27779;DHT22;30234;48.090;11.464;2022-07-23T09:52:52;31.30;93.20
27779;DHT22;30234;48.090;11.464;2022-07-23T09:57:08;30.60;94.00
27779;DHT22;30234;48.090;11.464;2022-07-23T10:01:23;29.70;93.40
27779;DHT22;30234;48.090;11.464;2022-07-23T10:05:25;28.90;94.00
27779;DHT22;30234;48.090;11.464;2022-07-23T10:18:44;31.40;87.50
27779;DHT22;30234;48.090;11.464;2022-07-23T10:23:20;30.80;87.10
27779;DHT22;30234;48.090;11.464;2022-07-23T10:32:28;31.20;83.90
27779;DHT22;30234;48.090;11.464;2022-07-23T10:37:12;31.60;80.60
27779;DHT22;30234;48.090;11.464;2022-07-23T10:41:41;30.50;81.80
27779;DHT22;30234;48.090;11.464;2022-07-23T10:55:50;29.30;83.20
27779;DHT22;30234;48.090;11.464;2022-07-23T11:04:12;29.50;83.00
27779;DHT22;30234;48.090;11.464;2022-07-23T11:08:20;28.70;84.20
27779;DHT22;30234;48.090;11.464;2022-07-23T11:16:46;27.80;88.10
27779;DHT22;30234;48.090;11.464;2022-07-23T11:20:50;27.60;89.10
27779;DHT22;30234;48.090;11.464;2022-07-23T11:24:51;27.40;89.70
27779;DHT22;30234;48.090;11.464;2022-07-23T11:28:52;27.10;90.40
27779;DHT22;30234;48.090;11.464;2022-07-23T11:32:55;26.70;91.10
27779;DHT22;30234;48.090;11.464;2022-07-23T11:41:44;26.20;92.20
27779;DHT22;30234;48.090;11.464;2022-07-23T11:45:51;25.80;93.40
27779;DHT22;30234;48.090;11.464;2022-07-23T11:49:59;25.90;93.80
27779;DHT22;30234;48.090;11.464;2022-07-23T11:58:57;25.70;94.60
27779;DHT22;30234;48.090;11.464;2022-07-23T12:03:03;25.70;95.00
27779;DHT22;30234;48.090;11.464;2022-07-23T12:07:04;25.50;95.30
27779;DHT22;30234;48.090;11.464;2022-07-23T12:11:22;25.50;95.90
27779;DHT22;30234;48.090;11.464;2022-07-23T12:15:58;25.70;96.00
27779;DHT22;30234;48.090;11.464;2022-07-23T12:20:00;25.90;96.00
27779;DHT22;30234;48.090;11.464;2022-07-23T12:24:06;25.80;95.70
27779;DHT22;30234;48.090;11.464;2022-07-23T12:28:17;25.90;96.20
27779;DHT22;30234;48.090;11.464;2022-07-23T12:32:32;25.90;96.20
27779;DHT22;30234;48.090;11.464;2022-07-23T12:36:38;26.20;95.70
27779;DHT22;30234;48.090;11.464;2022-07-23T12:40:52;26.10;95.10
27779;DHT22;30234;48.090;11.464;2022-07-23T12:45:10;25.80;95.50
27779;DHT22;30234;48.090;11.464;2022-07-23T12:49:28;25.90;96.00
27779;DHT22;30234;48.090;11.464;2022-07-23T12:58:20;26.30;95.30
27779;DHT22;30234;48.090;11.464;2022-07-23T13:02:24;26.90;94.60
27779;DHT22;30234;48.090;11.464;2022-07-23T13:06:26;26.70;94.90
27779;DHT22;30234;48.090;11.464;2022-07-23T13:10:28;26.70;95.00
27779;DHT22;30234;48.090;11.464;2022-07-23T13:14:29;26.70;95.30
27779;DHT22;30234;48.090;11.464;2022-07-23T13:18:35;26.80;95.40
27779;DHT22;30234;48.090;11.464;2022-07-23T13:22:36;26.70;95.40
27779;DHT22;30234;48.090;11.464;2022-07-23T13:26:46;26.40;96.20
27779;DHT22;30234;48.090;11.464;2022-07-23T13:30:51;26.10;96.30
27779;DHT22;30234;48.090;11.464;2022-07-23T13:34:55;25.60;97.20
27779;DHT22;30234;48.090;11.464;2022-07-23T13:38:56;25.60;97.90
27779;DHT22;30234;48.090;11.464;2022-07-23T13:43:06;26.30;96.80
27779;DHT22;30234;48.090;11.464;2022-07-23T13:47:15;26.70;96.40
27779;DHT22;30234;48.090;11.464;2022-07-23T13:51:16;26.90;96.00
27779;DHT22;30234;48.090;11.464;2022-07-23T13:55:18;26.20;96.60
27779;DHT22;30234;48.090;11.464;2022-07-23T13:59:19;25.90;97.30
27779;DHT22;30234;48.090;11.464;2022-07-23T14:03:21;25.70;97.80
27779;DHT22;30234;48.090;11.464;2022-07-23T14:07:25;25.40;99.60
27779;DHT22;30234;48.090;11.464;2022-07-23T14:11:26;25.00;99.90
27779;DHT22;30234;48.090;11.464;2022-07-23T14:15:30;24.70;99.90
27779;DHT22;30234;48.090;11.464;2022-07-23T14:19:31;24.60;99.90
27779;DHT22;30234;48.090;11.464;2022-07-23T14:23:32;24.60;99.90
27779;DHT22;30234;48.090;11.464;2022-07-23T14:27:33;24.70;99.90
27779;DHT22;30234;48.090;11.464;2022-07-23T14:31:34;24.80;99.90
27779;DHT22;30234;48.090;11.464;2022-07-23T14:35:38;24.90;99.90
27779;DHT22;30234;48.090;11.464;2022-07-23T14:39:40;24.90;99.90
27779;DHT22;30234;48.090;11.464;2022-07-23T14:43:42;25.10;99.90
27779;DHT22;30234;48.090;11.464;2022-07-23T14:47:43;25.30;99.90
27779;DHT22;30234;48.090;11.464;2022-07-23T14:51:44;25.80;99.90
27779;DHT22;30234;48.090;11.464;2022-07-23T14:55:45;26.50;99.90
27779;DHT22;30234;48.090;11.464;2022-07-23T14:59:46;26.50;99.70
27779;DHT22;30234;48.090;11.464;2022-07-23T15:03:47;26.50;99.80
27779;DHT22;30234;48.090;11.464;2022-07-23T15:07:48;26.50;99.60
27779;DHT22;30234;48.090;11.464;2022-07-23T15:11:49;26.70;99.50
27779;DHT22;30234;48.090;11.464;2022-07-23T15:15:49;27.00;99.20
27779;DHT22;30234;48.090;11.464;2022-07-23T15:19:51;27.20;98.30
27779;DHT22;30234;48.090;11.464;2022-07-23T15:23:55;27.20;98.20
27779;DHT22;30234;48.090;11.464;2022-07-23T15:27:59;27.50;98.50
27779;DHT22;30234;48.090;11.464;2022-07-23T15:32:00;28.00;97.30
27779;DHT22;30234;48.090;11.464;2022-07-23T15:36:02;28.00;96.50
27779;DHT22;30234;48.090;11.464;2022-07-23T15:40:04;28.20;96.10
27779;DHT22;30234;48.090;11.464;2022-07-23T15:44:07;28.30;95.90
27779;DHT22;30234;48.090;11.464;2022-07-23T15:48:08;28.70;95.20
27779;DHT22;30234;48.090;11.464;2022-07-23T15:52:09;28.90;94.40
27779;DHT22;30234;48.090;11.464;2022-07-23T15:56:13;28.90;93.80
27779;DHT22;30234;48.090;11.464;2022-07-23T16:00:15;29.20;93.50
27779;DHT22;30234;48.090;11.464;2022-07-23T16:04:16;29.40;93.00
27779;DHT22;30234;48.090;11.464;2022-07-23T16:08:17;28.70;93.70
27779;DHT22;30234;48.090;11.464;2022-07-23T16:12:18;28.20;94.50
27779;DHT22;30234;48.090;11.464;2022-07-23T16:16:19;28.10;94.80
27779;DHT22;30234;48.090;11.464;2022-07-23T16:20:22;27.80;95.50
27779;DHT22;30234;48.090;11.464;2022-07-23T16:24:23;27.50;95.80
27779;DHT22;30234;48.090;11.464;2022-07-23T16:28:24;27.10;96.40
27779;DHT22;30234;48.090;11.464;2022-07-23T16:32:26;26.80;97.40
27779;DHT22;30234;48.090;11.464;2022-07-23T16:36:27;26.80;97.50
27779;DHT22;30234;48.090;11.464;2022-07-23T16:40:28;27.20;97.50
27779;DHT22;30234;48.090;11.464;2022-07-23T16:44:31;27.70;97.00
27779;DHT22;30234;48.090;11.464;2022-07-23T16:48:32;27.80;96.40
27779;DHT22;30234;48.090;11.464;2022-07-23T16:52:33;27.60;96.70
27779;DHT22;30234;48.090;11.464;2022-07-23T16:56:35;27.30;97.50
27779;DHT22;30234;48.090;11.464;2022-07-23T17:00:36;27.30;97.70
27779;DHT22;30234;48.090;11.464;2022-07-23T17:04:37;27.50;97.70
27779;DHT22;30234;48.090;11.464;2022-07-23T17:08:38;27.50;98.00
27779;DHT22;30234;48.090;11.464;2022-07-23T17:12:39;27.60;97.80
27779;DHT22;30234;48.090;11.464;2022-07-23T17:16:40;27.50;97.90
27779;DHT22;30234;48.090;11.464;2022-07-23T17:20:42;27.30;98.30
27779;DHT22;30234;48.090;11.464;2022-07-23T17:24:43;27.20;98.90
27779;DHT22;30234;48.090;11.464;2022-07-23T17:28:52;27.10;98.70
27779;DHT22;30234;48.090;11.464;2022-07-23T17:32:53;26.90;99.20
27779;DHT22;30234;48.090;11.464;2022-07-23T17:36:57;26.70;99.80
27779;DHT22;30234;48.090;11.464;2022-07-23T17:40:58;26.60;99.90
27779;DHT22;30234;48.090;11.464;2022-07-23T17:44:59;26.60;99.90
27779;DHT22;30234;48.090;11.464;2022-07-23T17:48:59;26.30;99.90
27779;DHT22;30234;48.090;11.464;2022-07-23T17:53:00;26.00;99.90
27779;DHT22;30234;48.090;11.464;2022-07-23T17:57:02;25.80;99.90
27779;DHT22;30234;48.090;11.464;2022-07-23T18:01:04;25.50;99.90
27779;DHT22;30234;48.090;11.464;2022-07-23T18:05:09;25.20;99.90
27779;DHT22;30234;48.090;11.464;2022-07-23T18:09:11;24.90;99.90
27779;DHT22;30234;48.090;11.464;2022-07-23T18:13:12;24.70;99.90
27779;DHT22;30234;48.090;11.464;2022-07-23T18:17:13;24.40;99.90
27779;DHT22;30234;48.090;11.464;2022-07-23T18:21:14;24.10;99.90
27779;DHT22;30234;48.090;11.464;2022-07-23T18:25:15;23.90;99.90
27779;DHT22;30234;48.090;11.464;2022-07-23T18:29:16;23.90;99.90
27779;DHT22;30234;48.090;11.464;2022-07-23T18:33:17;23.80;99.90
27779;DHT22;30234;48.090;11.464;2022-07-23T18:37:18;23.80;99.90
27779;DHT22;30234;48.090;11.464;2022-07-23T18:41:20;23.80;99.90
27779;DHT22;30234;48.090;11.464;2022-07-23T18:45:21;23.70;99.90
27779;DHT22;30234;48.090;11.464;2022-07-23T18:49:22;23.50;99.90
27779;DHT22;30234;48.090;11.464;2022-07-23T18:53:22;23.30;99.90
27779;DHT22;30234;48.090;11.464;2022-07-23T18:57:23;23.20;99.90
27779;DHT22;30234;48.090;11.464;2022-07-23T19:01:24;22.90;99.90
27779;DHT22;30234;48.090;11.464;2022-07-23T19:05:29;22.70;99.90
27779;DHT22;30234;48.090;11.464;2022-07-23T19:09:30;22.60;99.90
27779;DHT22;30234;48.090;11.464;2022-07-23T19:13:31;22.40;99.90
27779;DHT22;30234;48.090;11.464;2022-07-23T19:17:33;22.30;99.90
27779;DHT22;30234;48.090;11.464;2022-07-23T19:21:34;22.40;99.90
27779;DHT22;30234;48.090;11.464;2022-07-23T19:25:34;22.10;99.90
27779;DHT22;30234;48.090;11.464;2022-07-23T19:29:35;21.80;99.90
27779;DHT22;30234;48.090;11.464;2022-07-23T19:33:36;21.70;99.90
27779;DHT22;30234;48.090;11.464;2022-07-23T19:37:37;21.50;99.90
27779;DHT22;30234;48.090;11.464;2022-07-23T19:41:38;21.30;99.90
27779;DHT22;30234;48.090;11.464;2022-07-23T19:45:39;21.30;99.90
27779;DHT22;30234;48.090;11.464;2022-07-23T19:49:40;21.30;99.90
27779;DHT22;30234;48.090;11.464;2022-07-23T19:53:42;21.30;99.90
27779;DHT22;30234;48.090;11.464;2022-07-23T19:57:43;21.40;99.90
27779;DHT22;30234;48.090;11.464;2022-07-23T20:01:44;21.60;99.90
27779;DHT22;30234;48.090;11.464;2022-07-23T20:05:45;21.50;99.90
27779;DHT22;30234;48.090;11.464;2022-07-23T20:09:46;21.50;99.90
27779;DHT22;30234;48.090;11.464;2022-07-23T20:13:47;21.40;99.90
27779;DHT22;30234;48.090;11.464;2022-07-23T20:17:48;21.40;99.90
27779;DHT22;30234;48.090;11.464;2022-07-23T20:21:48;21.40;99.90
27779;DHT22;30234;48.090;11.464;2022-07-23T20:25:51;21.30;99.90
27779;DHT22;30234;48.090;11.464;2022-07-23T20:29:52;21.30;99.90
27779;DHT22;30234;48.090;11.464;2022-07-23T20:33:53;21.20;99.90
27779;DHT22;30234;48.090;11.464;2022-07-23T20:37:54;21.10;99.90
27779;DHT22;30234;48.090;11.464;2022-07-23T20:41:54;21.00;99.90
27779;DHT22;30234;48.090;11.464;2022-07-23T20:45:55;21.10;99.90
27779;DHT22;30234;48.090;11.464;2022-07-23T20:49:56;21.10;99.90
27779;DHT22;30234;48.090;11.464;2022-07-23T20:53:57;21.20;99.90
27779;DHT22;30234;48.090;11.464;2022-07-23T20:57:59;21.30;99.90
27779;DHT22;30234;48.090;11.464;2022-07-23T21:01:59;21.20;99.90
27779;DHT22;30234;48.090;11.464;2022-07-23T21:06:00;21.20;99.90
27779;DHT22;30234;48.090;11.464;2022-07-23T21:10:01;21.20;99.90
27779;DHT22;30234;48.090;11.464;2022-07-23T21:14:02;21.10;99.90
27779;DHT22;30234;48.090;11.464;2022-07-23T21:18:05;21.00;99.90
27779;DHT22;30234;48.090;11.464;2022-07-23T21:22:06;20.90;99.90
27779;DHT22;30234;48.090;11.464;2022-07-23T21:26:08;20.90;99.90
27779;DHT22;30234;48.090;11.464;2022-07-23T21:30:10;21.00;99.90
27779;DHT22;30234;48.090;11.464;2022-07-23T21:34:12;20.90;99.90
27779;DHT22;30234;48.090;11.464;2022-07-23T21:38:13;20.70;99.90
27779;DHT22;30234;48.090;11.464;2022-07-23T21:42:27;20.70;99.90
27779;DHT22;30234;48.090;11.464;2022-07-23T21:46:28;20.50;99.90
27779;DHT22;30234;48.090;11.464;2022-07-23T21:50:31;20.30;99.90
27779;DHT22;30234;48.090;11.464;2022-07-23T21:54:31;20.00;99.90
27779;DHT22;30234;48.090;11.464;2022-07-23T21:58:32;19.70;99.90
27779;DHT22;30234;48.090;11.464;2022-07-23T22:02:33;19.50;99.90
27779;DHT22;30234;48.090;11.464;2022-07-23T22:06:34;19.30;99.90
27779;DHT22;30234;48.090;11.464;2022-07-23T22:10:35;19.30;99.90
27779;DHT22;30234;48.090;11.464;2022-07-23T22:14:36;19.40;99.90
27779;DHT22;30234;48.090;11.464;2022-07-23T22:18:37;19.60;99.90
27779;DHT22;30234;48.090;11.464;2022-07-23T22:22:47;19.70;99.90
27779;DHT22;30234;48.090;11.464;2022-07-23T22:26:48;19.80;99.90
27779;DHT22;30234;48.090;11.464;2022-07-23T22:30:49;19.80;99.90
27779;DHT22;30234;48.090;11.464;2022-07-23T22:34:51;19.80;99.90
27779;DHT22;30234;48.090;11.464;2022-07-23T22:38:51;19.90;99.90
27779;DHT22;30234;48.090;11.464;2022-07-23T22:42:52;20.10;99.90
27779;DHT22;30234;48.090;11.464;2022-07-23T22:46:53;20.20;99.90
27779;DHT22;30234;48.090;11.464;2022-07-23T22:50:54;20.20;99.90
27779;DHT22;30234;48.090;11.464;2022-07-23T22:54:55;20.10;99.90
27779;DHT22;30234;48.090;11.464;2022-07-23T22:58:56;20.10;99.90
27779;DHT22;30234;48.090;11.464;2022-07-23T23:02:57;20.20;99.90
27779;DHT22;30234;48.090;11.464;2022-07-23T23:06:58;20.10;99.90
27779;DHT22;30234;48.090;11.464;2022-07-23T23:10:59;20.10;99.90
27779;DHT22;30234;48.090;11.464;2022-07-23T23:14:59;20.20;99.90
27779;DHT22;30234;48.090;11.464;2022-07-23T23:19:00;20.30;99.90
27779;DHT22;30234;48.090;11.464;2022-07-23T23:23:01;20.40;99.90
27779;DHT22;30234;48.090;11.464;2022-07-23T23:27:02;20.30;99.90
27779;DHT22;30234;48.090;11.464;2022-07-23T23:31:03;20.30;99.90
27779;DHT22;30234;48.090;11.464;2022-07-23T23:35:05;20.20;99.90
27779;DHT22;30234;48.090;11.464;2022-07-23T23:39:06;20.20;99.90
27779;DHT22;30234;48.090;11.464;2022-07-23T23:43:07;20.10;99.90
27779;DHT22;30234;48.090;11.464;2022-07-23T23:47:10;20.00;99.90
27779;DHT22;30234;48.090;11.464;2022-07-23T23:51:11;20.00;99.90
27779;DHT22;30234;48.090;11.464;2022-07-23T23:55:12;20.00;99.90
27779;DHT22;30234;48.090;11.464;2022-07-23T23:59:13;20.00;99.90
